Time;durP1;ratioP1;P1;durP2;ratioP2;P2;SDS_P1;SDS_P2;PMS_P1;PMS_P2;Temp;Humidity;BMP_temperature;BMP_pressure;BME280_temperature;BME280_humidity;BME280_pressure;Samples;Min_cycle;Max_cycle;Signal;HPM_P1;HPM_P2
2021/10/28 00:12:22;;;;;;;124.50;51.75;;;;;;;6.30;100.00;96406.00;1032163;28;20256;-70
2021/10/28 00:13:07;;;;;;;137.98;53.10;;;;;;;6.31;100.00;96396.41;1035527;28;20264;-71
2021/10/28 00:13:40;;;;;;;109.38;50.97;;;;;;;6.33;100.00;96402.97;1044402;28;20422;-71
2021/10/28 00:14:10;;;;;;;126.38;53.60;;;;;;;6.33;100.00;96402.19;1039498;28;20674;-72
2021/10/28 00:14:42;;;;;;;120.65;53.22;;;;;;;6.33;100.00;96404.78;1042981;28;20260;-72
2021/10/28 00:15:23;;;;;;;131.60;55.00;;;;;;;6.32;100.00;96392.78;1039561;28;20068;-75
2021/10/28 00:15:58;;;;;;;155.40;55.60;;;;;;;6.33;100.00;96399.56;1032597;28;20311;-71
2021/10/28 00:16:31;;;;;;;128.93;54.40;;;;;;;6.33;100.00;96399.56;1031220;28;20269;-71
2021/10/28 00:17:08;;;;;;;158.00;58.50;;;;;;;6.24;100.00;96391.28;1030789;28;20280;-71
2021/10/28 00:17:58;;;;;;;147.00;56.13;;;;;;;6.22;100.00;96395.91;1031939;28;20268;-74
2021/10/28 00:18:43;;;;;;;145.38;55.83;;;;;;;6.31;100.00;96402.41;1036351;28;20767;-71
2021/10/28 00:19:14;;;;;;;117.18;51.13;;;;;;;6.34;100.00;96394.16;1035183;28;20307;-72
2021/10/28 00:19:45;;;;;;;132.15;55.53;;;;;;;6.35;100.00;96397.56;1035124;28;20275;-72
2021/10/28 00:20:15;;;;;;;121.15;55.28;;;;;;;6.35;100.00;96398.34;1030580;28;20317;-71
2021/10/28 00:20:52;;;;;;;121.38;55.33;;;;;;;6.39;100.00;96401.31;1033725;28;20015;-73
2021/10/28 00:21:23;;;;;;;128.70;54.88;;;;;;;6.37;100.00;96401.53;1031384;28;20019;-72
2021/10/28 00:21:53;;;;;;;118.50;51.78;;;;;;;6.33;100.00;96387.34;1029362;28;20281;-70
2021/10/28 00:22:26;;;;;;;110.75;49.85;;;;;;;6.40;100.00;96402.88;1031220;28;20026;-72
2021/10/28 00:22:57;;;;;;;124.00;52.38;;;;;;;6.40;100.00;96402.88;1031355;28;20452;-73
2021/10/28 00:23:28;;;;;;;117.07;51.25;;;;;;;6.40;100.00;96404.72;1031999;28;20269;-71
2021/10/28 00:24:02;;;;;;;110.00;50.95;;;;;;;6.31;100.00;96393.81;1036262;28;20022;-72
2021/10/28 00:24:33;;;;;;;112.93;51.55;;;;;;;6.35;100.00;96398.34;1039487;28;20275;-71
2021/10/28 00:25:03;;;;;;;117.43;53.15;;;;;;;6.35;100.00;96395.75;1031221;28;20300;-71
2021/10/28 00:25:34;;;;;;;114.93;52.50;;;;;;;6.33;100.00;96396.97;1030309;28;20105;-71
2021/10/28 00:26:05;;;;;;;118.63;52.33;;;;;;;6.31;100.00;96391.97;1027050;28;20025;-71
2021/10/28 00:26:37;;;;;;;115.82;53.20;;;;;;;6.41;100.00;96395.91;1031432;28;20269;-71
2021/10/28 00:27:08;;;;;;;123.45;53.50;;;;;;;6.42;100.00;96398.25;1029811;28;20518;-73
2021/10/28 00:27:38;;;;;;;114.45;50.72;;;;;;;6.35;100.00;96393.13;1031681;28;20305;-72
2021/10/28 00:28:10;;;;;;;128.38;52.65;;;;;;;6.38;100.00;96394.50;1026994;28;20372;-71
2021/10/28 00:28:40;;;;;;;118.85;51.90;;;;;;;6.40;100.00;96396.88;1027559;28;20097;-74
2021/10/28 00:29:14;;;;;;;146.00;54.65;;;;;;;6.32;100.00;96383.16;1035255;28;20335;-72
2021/10/28 00:29:44;;;;;;;110.80;52.33;;;;;;;6.38;100.00;96392.69;1035972;28;20013;-71
2021/10/28 00:30:17;;;;;;;128.65;53.20;;;;;;;6.38;100.00;96386.69;1038247;28;20260;-71
2021/10/28 00:30:47;;;;;;;121.95;53.13;;;;;;;6.44;100.00;96392.81;1031298;28;20026;-72
2021/10/28 00:31:18;;;;;;;165.35;53.30;;;;;;;6.31;100.00;96384.16;1039302;28;20252;-72
2021/10/28 00:31:48;;;;;;;133.57;52.70;;;;;;;6.35;100.00;96390.53;1031255;28;20069;-71
2021/10/28 00:32:19;;;;;;;127.82;56.25;;;;;;;6.39;100.00;96393.50;1034661;28;20060;-70
2021/10/28 00:32:50;;;;;;;131.05;54.55;;;;;;;6.43;100.00;96406.88;1031273;28;20389;-71
2021/10/28 00:33:20;;;;;;;183.27;56.75;;;;;;;6.40;100.00;96396.88;1030255;28;20031;-72
2021/10/28 00:33:51;;;;;;;134.82;54.75;;;;;;;6.37;100.00;96393.72;1030980;28;20270;-71
2021/10/28 00:34:21;;;;;;;143.35;54.03;;;;;;;6.28;100.00;96395.03;1043417;28;20021;-72
2021/10/28 00:34:52;;;;;;;124.40;52.53;;;;;;;6.37;100.00;96408.53;1035680;28;20090;-73
2021/10/28 00:35:22;;;;;;;139.13;51.22;;;;;;;6.35;100.00;96398.34;1038353;28;20025;-72
2021/10/28 00:35:53;;;;;;;135.15;52.05;;;;;;;6.40;100.00;96404.72;1035061;28;20025;-71
2021/10/28 00:36:24;;;;;;;134.48;54.53;;;;;;;6.32;100.00;96398.78;1035357;28;20033;-72
2021/10/28 00:36:55;;;;;;;150.88;55.10;;;;;;;6.34;100.00;96395.97;1039434;28;20037;-73
2021/10/28 00:37:26;;;;;;;157.55;55.58;;;;;;;6.27;100.00;96396.06;1030523;28;20286;-70
2021/10/28 00:37:57;;;;;;;125.75;53.30;;;;;;;6.29;100.00;96399.22;1034878;28;20085;-71
2021/10/28 00:38:28;;;;;;;165.00;55.83;;;;;;;6.30;100.00;96403.41;1035347;28;20647;-72
2021/10/28 00:38:58;;;;;;;138.30;55.20;;;;;;;6.31;100.00;96399.00;1031335;28;20258;-71
2021/10/28 00:39:29;;;;;;;123.75;53.35;;;;;;;6.33;100.00;96404.78;1031241;28;20316;-71
2021/10/28 00:39:59;;;;;;;111.45;51.92;;;;;;;6.26;100.00;96391.84;1032684;28;20030;-72
2021/10/28 00:40:30;;;;;;;127.25;53.28;;;;;;;6.34;100.00;96406.41;1035186;28;20603;-74
2021/10/28 00:41:01;;;;;;;133.43;54.88;;;;;;;6.27;100.00;96392.63;1035194;28;20508;-71
2021/10/28 00:41:32;;;;;;;154.38;52.45;;;;;;;6.33;100.00;96404.78;1027148;28;20011;-73
2021/10/28 00:42:03;;;;;;;187.90;54.42;;;;;;;6.31;100.00;96399.81;1027463;28;20292;-71
2021/10/28 00:42:36;;;;;;;121.15;52.65;;;;;;;6.28;100.00;96400.25;1025702;28;20567;-72
2021/10/28 00:43:07;;;;;;;147.45;54.40;;;;;;;6.28;100.00;96397.63;1027292;28;20777;-72
2021/10/28 00:43:45;;;;;;;136.85;52.88;;;;;;;6.21;100.00;96396.91;1031445;28;20269;-72
2021/10/28 00:44:15;;;;;;;158.25;55.72;;;;;;;6.25;100.00;96402.50;1036139;28;20523;-71
2021/10/28 00:44:46;;;;;;;151.68;54.63;;;;;;;6.21;100.00;96398.72;1032081;28;20271;-71
2021/10/28 00:45:16;;;;;;;137.45;55.22;;;;;;;6.23;100.00;96397.47;1026610;28;20542;-74
2021/10/28 00:45:52;;;;;;;123.35;51.72;;;;;;;6.24;100.00;96398.31;1031893;28;20027;-71
2021/10/28 00:46:31;;;;;;;172.90;56.83;;;;;;;6.25;100.00;96395.47;1037181;28;20845;-71
2021/10/28 00:47:04;;;;;;;129.05;54.30;;;;;;;6.25;100.00;96398.06;1035366;28;20268;-72
2021/10/28 00:47:36;;;;;;;133.50;55.38;;;;;;;6.20;100.00;96389.31;1032613;28;20718;-73
2021/10/28 00:48:07;;;;;;;143.02;53.97;;;;;;;6.23;100.00;96396.69;1039168;28;20304;-73
2021/10/28 00:48:38;;;;;;;164.48;55.40;;;;;;;6.23;100.00;96400.09;1040949;28;20306;-70
2021/10/28 00:49:09;;;;;;;154.13;54.00;;;;;;;6.20;100.00;96397.91;1042328;28;20272;-70
2021/10/28 00:49:40;;;;;;;141.68;55.65;;;;;;;6.25;100.00;96395.47;1040163;28;20079;-73
2021/10/28 00:50:10;;;;;;;129.85;52.13;;;;;;;6.24;100.00;96393.09;1043945;28;20381;-72
2021/10/28 00:50:41;;;;;;;155.90;54.83;;;;;;;6.22;100.00;96398.50;1039414;28;20025;-72
2021/10/28 00:51:12;;;;;;;185.52;56.28;;;;;;;6.11;100.00;96389.59;1031417;28;20165;-72
2021/10/28 00:51:43;;;;;;;135.63;52.88;;;;;;;6.11;100.00;96391.41;1027459;28;20407;-71
2021/10/28 00:52:13;;;;;;;167.45;53.08;;;;;;;6.18;100.00;96394.75;1027439;28;20258;-72
2021/10/28 00:52:44;;;;;;;169.05;54.50;;;;;;;6.10;100.00;96382.81;1030215;28;20034;-71
2021/10/28 00:53:16;;;;;;;154.18;54.35;;;;;;;6.14;100.00;96386.56;1027333;28;20030;-71
2021/10/28 00:53:46;;;;;;;134.18;52.13;;;;;;;6.20;100.00;96395.31;1027508;28;20030;-71
2021/10/28 00:54:22;;;;;;;147.00;54.50;;;;;;;6.16;100.00;96396.75;1026852;28;20270;-71
2021/10/28 00:54:52;;;;;;;141.25;52.70;;;;;;;6.11;100.00;96392.22;1027476;28;20030;-71
2021/10/28 00:55:23;;;;;;;157.23;54.38;;;;;;;6.13;100.00;96390.16;1030837;28;20261;-71
2021/10/28 00:55:54;;;;;;;187.13;54.85;;;;;;;5.99;100.00;96382.72;1031808;28;20117;-73
2021/10/28 00:56:25;;;;;;;193.63;57.78;;;;;;;6.01;100.00;96391.13;1031330;28;20022;-71
2021/10/28 00:56:55;;;;;;;194.27;56.17;;;;;;;5.99;100.00;96390.53;1035584;28;20026;-71
2021/10/28 00:57:26;;;;;;;170.00;55.92;;;;;;;6.02;100.00;96383.09;1035399;28;20823;-73
2021/10/28 00:57:56;;;;;;;173.98;57.25;;;;;;;5.99;100.00;96391.34;1026292;28;20023;-71
2021/10/28 00:58:27;;;;;;;189.52;56.83;;;;;;;5.94;100.00;96385.19;1027525;28;20027;-73
2021/10/28 00:58:57;;;;;;;166.25;55.38;;;;;;;5.94;100.00;96393.03;1031450;28;20037;-71
2021/10/28 00:59:27;;;;;;;194.77;58.83;;;;;;;5.90;100.00;96395.19;1039323;28;20025;-72
2021/10/28 00:59:58;;;;;;;168.82;59.25;;;;;;;5.85;100.00;96382.84;1038298;28;20020;-71
2021/10/28 01:00:29;;;;;;;178.48;59.13;;;;;;;5.85;100.00;96377.63;1023398;29;20549;-71
2021/10/28 01:01:00;;;;;;;154.27;59.53;;;;;;;5.90;100.00;96387.38;1029116;28;20027;-71
2021/10/28 01:01:31;;;;;;;127.57;53.70;;;;;;;5.96;100.00;96398.78;1029010;28;20030;-73
2021/10/28 01:02:02;;;;;;;149.80;57.08;;;;;;;5.97;100.00;96395.97;1029157;28;20329;-71
2021/10/28 01:02:32;;;;;;;201.38;60.97;;;;;;;6.00;100.00;96394.72;1031796;28;20390;-73
2021/10/28 01:03:03;;;;;;;186.50;56.50;;;;;;;6.06;100.00;96401.69;1034936;28;20273;-70
2021/10/28 01:03:34;;;;;;;215.93;61.53;;;;;;;5.99;100.00;96399.16;1031523;28;20028;-71
2021/10/28 01:04:05;;;;;;;123.40;52.00;;;;;;;5.97;100.00;96393.38;1035775;28;20301;-72
2021/10/28 01:04:35;;;;;;;131.98;52.90;;;;;;;5.98;100.00;96392.34;1031900;28;20760;-71
2021/10/28 01:05:06;;;;;;;189.20;56.75;;;;;;;5.91;100.00;96387.19;1028632;28;20029;-71
2021/10/28 01:05:37;;;;;;;181.40;57.65;;;;;;;5.99;100.00;96401.75;1034859;28;20116;-73
2021/10/28 01:06:08;;;;;;;175.55;58.50;;;;;;;5.96;100.00;96398.78;1031385;28;20023;-70
2021/10/28 01:06:39;;;;;;;152.88;57.38;;;;;;;6.00;100.00;96405.16;1033244;28;20477;-71
2021/10/28 01:07:09;;;;;;;140.32;55.22;;;;;;;5.99;100.00;96395.75;1035485;28;20329;-72
2021/10/28 01:07:40;;;;;;;165.18;57.38;;;;;;;5.94;100.00;96388.59;1031409;28;20473;-70
2021/10/28 01:08:10;;;;;;;177.93;57.55;;;;;;;5.95;100.00;96402.41;1027121;28;20027;-74
2021/10/28 01:08:45;;;;;;;138.73;53.58;;;;;;;6.00;100.00;96405.16;1031366;28;20022;-71
2021/10/28 01:09:15;;;;;;;148.07;55.63;;;;;;;5.90;100.00;96383.00;1039542;28;20029;-71
2021/10/28 01:09:46;;;;;;;177.85;58.05;;;;;;;5.95;100.00;96387.56;1035512;28;20343;-72
2021/10/28 01:10:16;;;;;;;159.82;56.08;;;;;;;5.94;100.00;96385.19;1032494;28;20030;-72
2021/10/28 01:10:48;;;;;;;162.55;56.67;;;;;;;5.94;100.00;96385.19;1035354;28;20018;-71
2021/10/28 01:11:19;;;;;;;134.90;53.55;;;;;;;5.99;100.00;96398.34;1027057;28;20088;-71
2021/10/28 01:11:53;;;;;;;154.45;56.40;;;;;;;5.97;100.00;96397.78;1027213;28;20883;-71
2021/10/28 01:12:23;;;;;;;150.45;57.22;;;;;;;5.98;100.00;96401.97;1027319;28;20037;-73
2021/10/28 01:12:54;;;;;;;142.77;55.88;;;;;;;5.90;100.00;96385.59;1027383;28;20282;-71
2021/10/28 01:13:24;;;;;;;139.30;55.20;;;;;;;5.96;100.00;96391.78;1032027;28;20061;-72
2021/10/28 01:13:56;;;;;;;130.35;55.45;;;;;;;5.93;100.00;96387.00;1031440;28;20524;-72
2021/10/28 01:14:26;;;;;;;130.02;53.75;;;;;;;6.02;100.00;96398.72;1027286;28;20037;-73
2021/10/28 01:14:58;;;;;;;118.07;52.10;;;;;;;6.06;100.00;96406.91;1029760;28;20641;-71
2021/10/28 01:15:29;;;;;;;160.07;55.97;;;;;;;5.91;100.00;96386.41;1034643;28;20021;-77
2021/10/28 01:15:59;;;;;;;158.00;52.97;;;;;;;5.98;100.00;96394.16;1027309;28;20274;-72
2021/10/28 01:16:30;;;;;;;136.10;51.97;;;;;;;6.05;100.00;96398.28;1028600;28;20026;-74
2021/10/28 01:17:00;;;;;;;155.88;55.35;;;;;;;5.99;100.00;96399.16;1031297;28;20034;-73
2021/10/28 01:17:31;;;;;;;148.05;54.40;;;;;;;5.98;100.00;96396.78;1031481;28;20030;-73
2021/10/28 01:18:07;;;;;;;169.93;60.78;;;;;;;5.95;100.00;96402.41;1030965;28;20026;-71
2021/10/28 01:18:38;;;;;;;142.20;56.45;;;;;;;5.96;100.00;96398.78;1031431;28;20393;-71
2021/10/28 01:19:09;;;;;;;175.80;56.70;;;;;;;5.96;100.00;96402.19;1024287;28;20353;-71
2021/10/28 01:19:39;;;;;;;174.13;57.85;;;;;;;5.99;100.00;96403.56;1024248;28;20362;-72
2021/10/28 01:20:10;;;;;;;184.13;59.80;;;;;;;5.95;100.00;96400.59;1026861;28;20031;-71
2021/10/28 01:20:45;;;;;;;210.82;54.72;;;;;;;5.93;100.00;96394.00;1035762;28;20014;-71
2021/10/28 01:21:15;;;;;;;280.45;60.55;;;;;;;5.81;100.00;96373.88;1035474;28;20291;-70
2021/10/28 01:21:46;;;;;;;249.63;55.85;;;;;;;5.86;100.00;96394.06;1030806;28;20304;-70
2021/10/28 01:22:17;;;;;;;276.10;63.30;;;;;;;5.82;100.00;96387.69;1027235;28;20022;-74
2021/10/28 01:22:48;;;;;;;255.88;65.85;;;;;;;5.84;100.00;96396.09;1027405;28;20132;-71
2021/10/28 01:23:21;;;;;;;257.90;67.38;;;;;;;5.81;100.00;96397.31;1029001;28;20081;-72
2021/10/28 01:23:51;;;;;;;364.58;73.45;;;;;;;5.82;100.00;96395.50;1038952;28;20263;-71
2021/10/28 01:24:22;;;;;;;295.92;67.55;;;;;;;5.72;100.00;96377.75;1039261;28;20268;-71
2021/10/28 01:24:53;;;;;;;202.38;61.67;;;;;;;5.77;100.00;96384.91;1040394;28;20029;-76
2021/10/28 01:25:23;;;;;;;260.20;65.65;;;;;;;5.86;100.00;96397.44;1039112;28;20025;-71
2021/10/28 01:25:55;;;;;;;274.00;63.95;;;;;;;5.84;100.00;96398.69;1045919;28;20274;-71
2021/10/28 01:26:25;;;;;;;253.90;64.50;;;;;;;5.81;100.00;96394.72;1039180;28;20123;-72
2021/10/28 01:27:14;;;;;;;266.10;71.28;;;;;;;5.77;100.00;96380.53;1039302;28;20651;-71
2021/10/28 01:27:45;;;;;;;281.63;66.47;;;;;;;5.87;100.00;96395.66;1039148;28;20498;-71
2021/10/28 01:28:15;;;;;;;253.90;66.18;;;;;;;5.76;100.00;96378.91;1036763;28;20687;-71
2021/10/28 01:29:04;;;;;;;289.42;68.65;;;;;;;5.87;100.00;96393.06;1027239;28;20025;-72
2021/10/28 01:29:35;;;;;;;245.00;67.95;;;;;;;5.78;100.00;96384.72;1043639;28;20025;-71
2021/10/28 01:30:06;;;;;;;297.75;66.13;;;;;;;5.86;100.00;96389.63;1030891;28;20632;-71
2021/10/28 01:30:37;;;;;;;209.35;63.05;;;;;;;5.88;100.00;96389.44;1031339;28;20264;-73
2021/10/28 01:31:08;;;;;;;289.52;72.90;;;;;;;5.85;100.00;96387.25;1031434;28;20085;-74
2021/10/28 01:31:39;;;;;;;201.65;65.55;;;;;;;5.90;100.00;96390.81;1027686;28;20058;-71
2021/10/28 01:32:09;;;;;;;322.02;73.45;;;;;;;5.90;100.00;96390.00;1031513;28;20356;-72
2021/10/28 01:32:40;;;;;;;282.25;72.45;;;;;;;5.89;100.00;96389.19;1035360;28;20030;-70
2021/10/28 01:33:10;;;;;;;239.52;68.43;;;;;;;5.90;100.00;96396.03;1031634;28;20117;-72
2021/10/28 01:33:41;;;;;;;276.77;71.95;;;;;;;5.88;100.00;96387.63;1039028;28;20018;-72
2021/10/28 01:34:17;;;;;;;215.13;67.55;;;;;;;5.93;100.00;96389.59;1035406;28;20081;-71
2021/10/28 01:34:47;;;;;;;277.58;68.68;;;;;;;5.95;100.00;96382.38;1039387;28;20021;-73
2021/10/28 01:35:19;;;;;;;327.52;70.68;;;;;;;6.03;100.00;96389.09;1034193;28;20268;-71
2021/10/28 01:35:49;;;;;;;287.52;70.50;;;;;;;6.00;100.00;96389.53;1031985;28;20604;-73
2021/10/28 01:36:20;;;;;;;245.32;67.20;;;;;;;6.01;100.00;96396.34;1031506;28;20304;-73
2021/10/28 01:36:51;;;;;;;320.08;65.63;;;;;;;5.99;100.00;96393.16;1036519;28;20029;-73
2021/10/28 01:37:22;;;;;;;287.77;66.00;;;;;;;5.84;100.00;96386.47;1043535;28;20271;-73
2021/10/28 01:37:52;;;;;;;235.18;67.55;;;;;;;5.90;100.00;96390.81;1035282;28;20655;-71
2021/10/28 01:38:24;;;;;;;354.40;73.20;;;;;;;5.78;100.00;96387.31;1039449;28;20397;-72
2021/10/28 01:38:55;;;;;;;335.27;76.22;;;;;;;5.86;100.00;96391.44;1031522;28;20022;-71
2021/10/28 01:39:25;;;;;;;375.67;75.70;;;;;;;5.89;100.00;96396.22;1027698;28;20270;-70
2021/10/28 01:39:56;;;;;;;270.20;69.20;;;;;;;5.85;100.00;96388.03;1031256;28;20077;-72
2021/10/28 01:40:26;;;;;;;306.88;72.32;;;;;;;5.87;100.00;96395.66;1030952;28;20026;-71
2021/10/28 01:40:59;;;;;;;367.48;74.40;;;;;;;5.78;100.00;96395.13;1031302;28;20037;-70
2021/10/28 01:41:30;;;;;;;268.10;68.00;;;;;;;5.82;100.00;96393.69;1035281;28;20026;-71
2021/10/28 01:42:02;;;;;;;307.48;70.90;;;;;;;5.86;100.00;96400.06;1039568;28;20798;-70
2021/10/28 01:42:32;;;;;;;315.08;73.15;;;;;;;5.87;100.00;96396.44;1039406;28;20064;-70
2021/10/28 01:43:03;;;;;;;202.00;61.83;;;;;;;5.89;100.00;96391.00;1035790;28;20368;-71
2021/10/28 01:43:34;;;;;;;207.18;64.85;;;;;;;5.91;100.00;96391.59;1038954;28;20025;-69
2021/10/28 01:44:04;;;;;;;248.77;71.20;;;;;;;5.90;100.00;96390.81;1035459;28;20425;-71
2021/10/28 01:44:38;;;;;;;210.43;66.57;;;;;;;5.93;100.00;96388.81;1038736;28;20021;-72
2021/10/28 01:45:09;;;;;;;254.30;69.65;;;;;;;5.94;100.00;96393.03;1035260;28;20025;-72
2021/10/28 01:45:39;;;;;;;287.25;73.93;;;;;;;5.88;100.00;96379.00;1034659;28;20288;-71
2021/10/28 01:46:10;;;;;;;219.02;67.13;;;;;;;5.96;100.00;96383.16;1027498;28;20494;-70
2021/10/28 01:46:41;;;;;;;292.92;74.22;;;;;;;5.97;100.00;96385.56;1030561;28;20034;-71
2021/10/28 01:47:16;;;;;;;240.32;69.07;;;;;;;5.95;100.00;96379.75;1030529;28;20785;-72
2021/10/28 01:47:47;;;;;;;210.82;63.58;;;;;;;5.90;100.00;96374.38;1037079;28;20025;-70
2021/10/28 01:48:18;;;;;;;256.58;65.40;;;;;;;5.87;100.00;96373.00;1035698;28;20637;-72
2021/10/28 01:48:49;;;;;;;357.50;73.13;;;;;;;5.99;100.00;96387.94;1033121;28;20136;-72
2021/10/28 01:49:21;;;;;;;245.45;65.43;;;;;;;5.93;100.00;96370.56;1030571;28;20647;-72
2021/10/28 01:49:51;;;;;;;251.73;69.50;;;;;;;6.00;100.00;96379.09;1026958;28;20276;-70
2021/10/28 01:50:22;;;;;;;316.33;70.75;;;;;;;6.00;100.00;96384.31;1030868;28;20274;-69
2021/10/28 01:50:53;;;;;;;241.35;69.50;;;;;;;5.98;100.00;96378.53;1035003;28;20022;-70
2021/10/28 01:51:24;;;;;;;359.52;73.32;;;;;;;5.99;100.00;96380.13;1034968;28;20560;-70
2021/10/28 01:51:55;;;;;;;259.77;68.95;;;;;;;6.00;100.00;96379.94;1035290;28;20269;-71
2021/10/28 01:52:25;;;;;;;508.20;82.00;;;;;;;6.01;100.00;96383.31;1034788;28;20022;-71
2021/10/28 01:52:57;;;;;;;275.95;70.95;;;;;;;6.00;100.00;96384.31;1039287;28;20272;-71
2021/10/28 01:53:28;;;;;;;294.58;68.57;;;;;;;5.95;100.00;96371.16;1038983;28;20017;-74
2021/10/28 01:53:58;;;;;;;342.45;74.05;;;;;;;6.00;100.00;96386.91;1042950;28;20845;-72
2021/10/28 01:54:29;;;;;;;258.48;66.72;;;;;;;6.01;100.00;96385.94;1038853;28;20030;-71
2021/10/28 01:54:59;;;;;;;298.15;68.63;;;;;;;5.99;100.00;96387.94;1039163;28;20080;-72
2021/10/28 01:55:30;;;;;;;340.20;75.72;;;;;;;5.99;100.00;96390.53;1029280;28;20030;-73
2021/10/28 01:56:00;;;;;;;304.75;76.50;;;;;;;6.00;100.00;96389.53;1035139;28;20033;-72
2021/10/28 01:56:32;;;;;;;225.25;67.38;;;;;;;6.01;100.00;96385.94;1043268;28;20013;-71
2021/10/28 01:57:02;;;;;;;334.08;76.68;;;;;;;5.97;100.00;96385.56;1043473;28;20392;-71
2021/10/28 01:57:33;;;;;;;319.17;75.63;;;;;;;6.01;100.00;96385.94;1038692;28;20264;-71
2021/10/28 01:58:03;;;;;;;233.27;68.07;;;;;;;5.99;100.00;96378.31;1034589;28;20026;-73
2021/10/28 01:58:34;;;;;;;167.00;60.45;;;;;;;6.03;100.00;96383.88;1035066;28;20029;-71
2021/10/28 01:59:04;;;;;;;364.88;75.22;;;;;;;6.06;100.00;96383.44;1030916;28;20429;-70
2021/10/28 01:59:35;;;;;;;346.38;73.95;;;;;;;6.03;100.00;96387.28;1027145;28;20027;-71
2021/10/28 02:00:13;;;;;;;323.33;73.13;;;;;;;6.05;100.00;96387.88;1030726;28;20014;-73
2021/10/28 02:00:45;;;;;;;284.75;72.22;;;;;;;5.98;100.00;96366.31;1035099;28;20029;-71
2021/10/28 02:01:15;;;;;;;280.25;68.60;;;;;;;6.05;100.00;96384.47;1035049;28;20364;-71
2021/10/28 02:01:46;;;;;;;296.55;72.05;;;;;;;6.04;100.00;96377.69;1036040;28;20268;-72
2021/10/28 02:02:16;;;;;;;300.75;71.18;;;;;;;6.04;100.00;96383.69;1035118;28;20527;-73
2021/10/28 02:02:47;;;;;;;259.40;70.78;;;;;;;6.00;100.00;96374.72;1035073;28;20377;-69
2021/10/28 02:03:17;;;;;;;249.68;71.05;;;;;;;6.06;100.00;96375.63;1030571;28;20177;-73
2021/10/28 02:03:48;;;;;;;401.70;82.30;;;;;;;6.06;100.00;96378.25;1026955;28;20023;-71
2021/10/28 02:04:19;;;;;;;242.80;70.50;;;;;;;6.03;100.00;96374.25;1027070;28;20026;-73
2021/10/28 02:04:50;;;;;;;329.25;77.70;;;;;;;5.97;100.00;96369.94;1032037;28;20028;-73
2021/10/28 02:05:21;;;;;;;322.60;78.03;;;;;;;5.98;100.00;96373.34;1038449;28;20631;-72
2021/10/28 02:05:52;;;;;;;214.98;63.00;;;;;;;6.03;100.00;96382.06;1026991;28;20041;-73
2021/10/28 02:06:22;;;;;;;374.65;82.38;;;;;;;6.04;100.00;96378.47;1026860;28;20277;-72
2021/10/28 02:06:53;;;;;;;182.82;63.33;;;;;;;6.08;100.00;96386.66;1034523;28;20421;-72
2021/10/28 02:07:23;;;;;;;206.48;65.68;;;;;;;6.12;100.00;96379.97;1035056;28;20405;-71
2021/10/28 02:07:54;;;;;;;303.90;71.18;;;;;;;6.07;100.00;96382.44;1038848;28;20022;-74
2021/10/28 02:08:25;;;;;;;338.63;76.95;;;;;;;6.11;100.00;96388.81;1030726;28;20025;-71
2021/10/28 02:08:55;;;;;;;342.02;77.32;;;;;;;6.09;100.00;96377.81;1035022;28;20547;-73
2021/10/28 02:09:26;;;;;;;370.00;77.00;;;;;;;6.10;100.00;96380.22;1030944;28;20022;-73
2021/10/28 02:09:56;;;;;;;322.35;72.93;;;;;;;6.05;100.00;96376.66;1030938;28;20430;-70
2021/10/28 02:10:27;;;;;;;270.73;66.57;;;;;;;6.05;100.00;96377.44;1039117;28;20504;-71
2021/10/28 02:10:57;;;;;;;260.88;67.82;;;;;;;6.09;100.00;96383.81;1038271;28;20507;-74
2021/10/28 02:11:27;;;;;;;384.48;82.82;;;;;;;6.11;100.00;96383.59;1034365;28;20556;-73
2021/10/28 02:11:58;;;;;;;364.33;77.13;;;;;;;6.03;100.00;96366.44;1034948;28;20030;-71
2021/10/28 02:12:29;;;;;;;262.40;66.20;;;;;;;6.09;100.00;96386.41;1030621;28;20019;-71
2021/10/28 02:13:00;;;;;;;225.38;62.63;;;;;;;6.00;100.00;96379.09;1030746;28;20429;-72
2021/10/28 02:13:31;;;;;;;219.65;60.20;;;;;;;6.08;100.00;96389.25;1030771;28;20022;-73
2021/10/28 02:14:01;;;;;;;241.38;62.55;;;;;;;6.09;100.00;96383.00;1030909;28;20694;-73
2021/10/28 02:14:32;;;;;;;180.05;59.35;;;;;;;6.09;100.00;96383.81;1034899;28;20017;-72
2021/10/28 02:15:03;;;;;;;206.98;63.00;;;;;;;6.03;100.00;96370.84;1038588;28;20037;-72
2021/10/28 02:15:33;;;;;;;206.55;60.13;;;;;;;6.05;100.00;96376.66;1030304;28;20041;-73
2021/10/28 02:16:04;;;;;;;177.85;56.80;;;;;;;6.08;100.00;96386.66;1030834;28;20704;-70
2021/10/28 02:16:35;;;;;;;193.00;59.33;;;;;;;5.98;100.00;96375.94;1030157;28;20026;-72
2021/10/28 02:17:05;;;;;;;159.00;55.25;;;;;;;6.04;100.00;96383.69;1039022;28;20435;-71
2021/10/28 02:17:36;;;;;;;160.98;56.95;;;;;;;6.01;100.00;96380.72;1038993;28;20750;-72
2021/10/28 02:18:08;;;;;;;165.38;57.00;;;;;;;6.05;100.00;96384.47;1034296;28;20038;-69
2021/10/28 02:18:38;;;;;;;151.23;56.78;;;;;;;6.07;100.00;96385.84;1039158;28;20260;-73
2021/10/28 02:19:09;;;;;;;174.65;55.45;;;;;;;6.02;100.00;96384.91;1043455;28;20263;-72
2021/10/28 02:19:39;;;;;;;132.30;50.22;;;;;;;5.99;100.00;96393.16;1047278;28;20035;-71
2021/10/28 02:20:12;;;;;;;165.35;56.38;;;;;;;5.97;100.00;96380.34;1042549;28;20032;-71
2021/10/28 02:20:42;;;;;;;189.13;56.88;;;;;;;5.95;100.00;96389.41;1038893;28;20025;-72
2021/10/28 02:21:13;;;;;;;175.63;54.35;;;;;;;5.94;100.00;96393.81;1034847;28;20305;-72
2021/10/28 02:21:43;;;;;;;167.25;53.35;;;;;;;5.95;100.00;96379.75;1035188;28;20532;-74
2021/10/28 02:22:14;;;;;;;162.90;54.08;;;;;;;5.86;100.00;96373.22;1039345;28;20579;-73
2021/10/28 02:22:44;;;;;;;207.63;59.72;;;;;;;5.95;100.00;96381.59;1043082;28;20068;-72
2021/10/28 02:23:14;;;;;;;186.50;60.00;;;;;;;5.90;100.00;96390.81;1039784;28;20693;-72
2021/10/28 02:23:45;;;;;;;149.77;53.97;;;;;;;5.89;100.00;96389.19;1043155;28;20480;-72
2021/10/28 02:24:16;;;;;;;190.55;60.28;;;;;;;5.90;100.00;96390.00;1035006;28;20022;-73
2021/10/28 02:24:46;;;;;;;192.80;59.17;;;;;;;5.90;100.00;96384.78;1034795;28;20257;-71
2021/10/28 02:25:17;;;;;;;174.15;57.13;;;;;;;5.89;100.00;96384.00;1033844;28;20493;-69
2021/10/28 02:25:47;;;;;;;172.60;55.90;;;;;;;5.77;100.00;96372.72;1034593;28;20600;-71
2021/10/28 02:26:18;;;;;;;193.07;59.78;;;;;;;5.83;100.00;96379.66;1034916;28;20060;-71
2021/10/28 02:26:50;;;;;;;149.57;54.42;;;;;;;5.93;100.00;96394.00;1033748;28;20025;-73
2021/10/28 02:27:20;;;;;;;178.70;55.85;;;;;;;5.87;100.00;96391.25;1030750;28;20438;-72
2021/10/28 02:27:51;;;;;;;162.70;56.00;;;;;;;5.81;100.00;96381.69;1027023;28;20274;-70
2021/10/28 02:28:21;;;;;;;190.13;58.90;;;;;;;5.84;100.00;96380.47;1030090;28;20077;-71
2021/10/28 02:28:53;;;;;;;192.93;61.15;;;;;;;5.89;100.00;96389.19;1030241;28;20010;-73
2021/10/28 02:29:23;;;;;;;190.60;61.97;;;;;;;5.91;100.00;96392.41;1031014;28;20045;-71
2021/10/28 02:29:54;;;;;;;192.98;59.22;;;;;;;5.90;100.00;96390.81;1035785;28;20763;-72
2021/10/28 02:30:24;;;;;;;218.95;63.47;;;;;;;5.84;100.00;96389.06;1041753;28;20545;-75
2021/10/28 02:30:55;;;;;;;224.75;66.38;;;;;;;5.89;100.00;96397.00;1038874;28;20028;-72
2021/10/28 02:31:26;;;;;;;197.38;64.00;;;;;;;5.91;100.00;96389.00;1034525;28;20093;-73
2021/10/28 02:31:57;;;;;;;281.63;69.20;;;;;;;5.93;100.00;96394.00;1028936;28;22049;-70
2021/10/28 02:32:27;;;;;;;215.65;61.40;;;;;;;5.89;100.00;96391.81;1030736;28;20117;-71
2021/10/28 02:32:58;;;;;;;210.07;65.38;;;;;;;5.90;100.00;96390.81;1031254;28;20276;-71
2021/10/28 02:33:28;;;;;;;203.32;65.70;;;;;;;5.95;100.00;96387.56;1038659;28;20159;-73
2021/10/28 02:33:59;;;;;;;248.27;66.25;;;;;;;5.97;100.00;96395.97;1043189;28;20024;-72
2021/10/28 02:34:30;;;;;;;223.15;63.85;;;;;;;5.98;100.00;96391.56;1043055;28;20017;-73
2021/10/28 02:35:03;;;;;;;213.75;64.50;;;;;;;6.01;100.00;96391.13;1037305;28;20029;-72